Dexter Township, Michigan
Current Conditions -  °F | °C
As of 10:15 PM on Monday 22 Dec 2014 (Local Time) from KOZW Reporting Station
Drizzle Drizzle  
Wind Chill: 26°   Ceiling: 4600
Heat Index: 35°   Visibility: 7mi
Dew Point: 32°   Wind: 12mph
Humidity: 90%   Direction: 100°E
Pressure: 29.85"   Gusts: NA
Location:  42.4646°N, 83.948°W
Report Text: KOZW 230315Z AUTO 10010KT 7SM -DZ BKN046 OVC060 02/00 A2985 RMK AO2 T00150000
Loading
Personal Weather Stations






























Interactive Weather Map New forecast layout! Learn more

10-Day Weather Forecast

Advertisements
Track Severe Weather on mobile